createdAt,value
2022-08-18T00:00:04.500Z,23.70
2022-08-18T00:02:31.583Z,23.70
2022-08-18T00:05:00.214Z,23.60
2022-08-18T00:07:31.793Z,23.50
2022-08-18T00:10:04.645Z,23.50
2022-08-18T00:12:41.062Z,23.50
2022-08-18T00:15:10.619Z,23.40
2022-08-18T00:17:37.860Z,23.40
2022-08-18T00:20:10.846Z,23.30
2022-08-18T00:22:40.503Z,23.30
2022-08-18T00:25:09.973Z,23.20
2022-08-18T00:27:41.361Z,23.20
2022-08-18T00:30:19.215Z,23.20
2022-08-18T00:32:50.655Z,23.10
2022-08-18T00:35:28.940Z,23.10
2022-08-18T00:37:58.600Z,23.10
2022-08-18T00:40:37.710Z,23.00
2022-08-18T00:43:12.881Z,23.00
2022-08-18T00:45:44.425Z,23.00
2022-08-18T00:48:16.499Z,23.00
2022-08-18T00:50:57.418Z,22.90
2022-08-18T00:53:27.440Z,22.90
2022-08-18T00:55:56.702Z,22.80
2022-08-18T00:58:29.420Z,22.70
2022-08-18T01:00:56.852Z,22.70
2022-08-18T01:03:28.945Z,22.70
2022-08-18T01:06:14.569Z,22.70
2022-08-18T01:08:41.974Z,22.70
2022-08-18T01:11:11.463Z,22.60
2022-08-18T01:13:43.099Z,22.60
2022-08-18T01:16:28.733Z,22.50
2022-08-18T01:19:14.198Z,22.50
2022-08-18T01:21:53.513Z,22.40
2022-08-18T01:24:45.550Z,22.40
2022-08-18T01:27:17.790Z,22.30
2022-08-18T01:29:48.590Z,22.30
2022-08-18T01:32:21.279Z,22.20
2022-08-18T01:34:51.940Z,22.20
2022-08-18T01:37:20.242Z,22.20
2022-08-18T01:41:22.453Z,22.20
2022-08-18T01:42:35.686Z,22.20
2022-08-18T01:45:05.679Z,22.20
2022-08-18T01:47:47.674Z,22.20
2022-08-18T01:50:17.987Z,22.10
2022-08-18T01:52:45.263Z,22.20
2022-08-18T01:55:11.974Z,22.10
2022-08-18T01:57:43.218Z,22.10
2022-08-18T02:00:12.963Z,22.00
2022-08-18T02:02:40.046Z,22.00
2022-08-18T02:05:09.354Z,22.00
2022-08-18T02:07:38.481Z,21.90
2022-08-18T02:10:10.316Z,21.80
2022-08-18T02:12:39.440Z,21.80
2022-08-18T02:15:07.814Z,21.70
2022-08-18T02:17:52.797Z,21.70
2022-08-18T02:20:22.259Z,21.70
2022-08-18T02:22:51.371Z,21.60
2022-08-18T02:25:20.740Z,21.60
2022-08-18T02:27:49.530Z,21.70
2022-08-18T02:30:19.879Z,21.70
2022-08-18T02:32:49.003Z,21.60
2022-08-18T02:35:15.802Z,21.60
2022-08-18T02:37:42.813Z,21.60
2022-08-18T02:40:11.165Z,21.60
2022-08-18T02:42:44.950Z,21.70
2022-08-18T02:45:14.323Z,21.60
2022-08-18T02:47:42.941Z,21.60
2022-08-18T02:50:11.444Z,21.60
2022-08-18T02:52:38.367Z,21.60
2022-08-18T02:55:07.475Z,21.50
2022-08-18T02:57:43.361Z,21.50
2022-08-18T03:00:13.090Z,21.50
2022-08-18T03:02:39.771Z,21.50
2022-08-18T03:05:09.093Z,21.40
2022-08-18T03:07:41.635Z,21.40
2022-08-18T03:10:32.892Z,21.40
2022-08-18T03:12:55.095Z,21.30
2022-08-18T03:15:22.765Z,21.30
2022-08-18T03:17:53.238Z,21.30
2022-08-18T03:20:30.240Z,21.30
2022-08-18T03:22:57.908Z,21.20
2022-08-18T03:25:25.023Z,21.20
2022-08-18T03:27:51.719Z,21.20
2022-08-18T03:30:18.426Z,21.20
2022-08-18T03:32:46.938Z,21.20
2022-08-18T03:35:14.667Z,21.10
2022-08-18T03:37:41.343Z,21.10
2022-08-18T03:40:10.871Z,21.10
2022-08-18T03:42:39.802Z,21.10
2022-08-18T03:45:13.259Z,21.10
2022-08-18T03:47:45.953Z,21.00
2022-08-18T03:50:14.095Z,21.00
2022-08-18T03:52:41.411Z,21.00
2022-08-18T03:55:09.099Z,21.00
2022-08-18T03:57:39.078Z,21.00
2022-08-18T04:00:09.825Z,21.00
2022-08-18T04:02:36.389Z,21.00
2022-08-18T04:05:05.308Z,21.00
2022-08-18T04:07:32.385Z,21.00
2022-08-18T04:09:58.974Z,21.00
2022-08-18T04:12:25.579Z,20.90
2022-08-18T04:14:53.342Z,20.90
2022-08-18T04:17:27.976Z,20.90
2022-08-18T04:19:55.823Z,20.90
2022-08-18T04:22:22.919Z,20.90
2022-08-18T04:27:31.810Z,20.90
2022-08-18T04:30:00.234Z,20.80
2022-08-18T04:32:29.993Z,20.80
2022-08-18T04:34:59.403Z,20.70
2022-08-18T04:37:32.270Z,20.80
2022-08-18T04:39:59.928Z,20.80
2022-08-18T04:42:26.598Z,20.80
2022-08-18T04:44:53.208Z,20.80
2022-08-18T04:47:24.715Z,20.70
2022-08-18T04:49:54.078Z,20.70
2022-08-18T04:52:41.788Z,20.70
2022-08-18T04:55:09.373Z,20.70
2022-08-18T04:57:42.644Z,20.70
2022-08-18T05:00:13.609Z,20.70
2022-08-18T05:02:40.593Z,20.70
2022-08-18T05:05:07.506Z,20.70
2022-08-18T05:07:34.184Z,20.70
2022-08-18T05:10:00.819Z,20.70
2022-08-18T05:12:29.948Z,20.60
2022-08-18T05:14:58.939Z,20.70
2022-08-18T05:17:30.188Z,20.70
2022-08-18T05:19:58.673Z,20.60
2022-08-18T05:22:28.563Z,20.70
2022-08-18T05:24:58.128Z,20.70
2022-08-18T05:27:27.096Z,20.70
2022-08-18T05:29:53.687Z,20.80
2022-08-18T05:32:40.895Z,20.80
2022-08-18T05:35:17.866Z,20.80
2022-08-18T05:37:57.054Z,20.80
2022-08-18T05:40:24.951Z,20.80
2022-08-18T05:42:51.652Z,20.80
2022-08-18T05:45:20.123Z,20.90
2022-08-18T05:47:51.762Z,20.90
2022-08-18T05:50:19.717Z,20.90
2022-08-18T05:53:00.111Z,20.90
2022-08-18T05:55:48.321Z,20.90
2022-08-18T05:58:17.588Z,20.90
2022-08-18T06:00:47.083Z,21.00
2022-08-18T06:03:16.404Z,21.00
2022-08-18T06:05:46.945Z,21.00
2022-08-18T06:08:14.830Z,21.00
2022-08-18T06:10:43.456Z,21.10
2022-08-18T06:13:11.006Z,21.10
2022-08-18T06:15:42.868Z,21.10
2022-08-18T06:18:29.091Z,21.10
2022-08-18T06:20:59.797Z,21.20
2022-08-18T06:23:31.669Z,21.20
2022-08-18T06:26:01.506Z,21.20
2022-08-18T06:28:36.798Z,21.20
2022-08-18T06:31:11.182Z,21.20
2022-08-18T06:33:46.722Z,21.20
2022-08-18T06:36:25.168Z,21.30
2022-08-18T06:39:02.338Z,21.40
2022-08-18T06:41:43.800Z,21.50
2022-08-18T06:44:10.622Z,21.60
2022-08-18T06:46:53.563Z,21.80
2022-08-18T06:49:43.183Z,21.90
2022-08-18T06:52:19.156Z,22.00
2022-08-18T06:54:51.224Z,22.10
2022-08-18T06:57:30.334Z,22.30
2022-08-18T06:59:59.922Z,22.20
2022-08-18T07:02:52.949Z,22.20
2022-08-18T07:05:20.449Z,22.20
2022-08-18T07:08:00.859Z,22.10
2022-08-18T07:10:29.246Z,22.10
2022-08-18T07:13:16.083Z,22.10
2022-08-18T07:15:45.373Z,22.00
2022-08-18T07:18:14.886Z,22.00
2022-08-18T07:20:53.767Z,22.00
2022-08-18T07:23:22.924Z,22.00
2022-08-18T07:25:50.941Z,22.00
2022-08-18T07:28:41.679Z,22.00
2022-08-18T07:31:28.574Z,22.00
2022-08-18T07:34:00.710Z,22.00
2022-08-18T07:36:30.036Z,22.00
2022-08-18T07:39:00.322Z,22.00
2022-08-18T07:41:35.590Z,22.10
2022-08-18T07:44:13.555Z,22.10
2022-08-18T07:47:01.843Z,22.10
2022-08-18T07:49:32.801Z,22.10
2022-08-18T07:52:19.230Z,22.20
2022-08-18T07:55:00.997Z,22.20
2022-08-18T07:57:42.442Z,22.20
2022-08-18T08:00:20.625Z,22.20
2022-08-18T08:03:09.234Z,22.20
2022-08-18T08:05:42.043Z,22.20
2022-08-18T08:08:25.009Z,22.30
2022-08-18T08:10:58.962Z,22.30
2022-08-18T08:13:55.368Z,22.40
2022-08-18T08:16:28.696Z,22.40
2022-08-18T08:18:58.391Z,22.40
2022-08-18T08:21:30.614Z,22.50
2022-08-18T08:24:12.296Z,22.50
2022-08-18T08:27:02.272Z,22.50
2022-08-18T08:29:38.224Z,22.50
2022-08-18T08:32:06.355Z,22.50
2022-08-18T08:34:39.333Z,22.50
2022-08-18T08:37:09.318Z,22.50
2022-08-18T08:39:41.896Z,22.50
2022-08-18T08:42:30.263Z,22.60
2022-08-18T08:45:04.658Z,22.60
2022-08-18T08:47:32.475Z,22.60
2022-08-18T08:50:11.088Z,22.60
2022-08-18T08:52:47.052Z,22.60
2022-08-18T08:55:26.703Z,22.70
2022-08-18T08:58:10.983Z,22.70
2022-08-18T09:00:40.863Z,22.70
2022-08-18T09:03:30.081Z,22.70
2022-08-18T09:05:57.251Z,22.70
2022-08-18T09:08:32.703Z,22.70
2022-08-18T09:11:14.338Z,22.70
2022-08-18T09:13:47.087Z,22.70
2022-08-18T09:16:32.541Z,22.80
2022-08-18T09:19:13.199Z,22.90
2022-08-18T09:21:50.589Z,22.90
2022-08-18T09:24:33.327Z,23.00
2022-08-18T09:27:03.030Z,23.10
2022-08-18T09:29:44.231Z,23.20
2022-08-18T09:32:20.310Z,23.30
2022-08-18T09:35:05.341Z,23.50
2022-08-18T09:37:32.622Z,23.50
2022-08-18T09:40:33.373Z,23.60
2022-08-18T09:43:12.130Z,23.60
2022-08-18T09:45:44.910Z,23.70
2022-08-18T09:48:11.472Z,23.70
2022-08-18T09:50:57.007Z,23.80
2022-08-18T09:53:37.138Z,23.90
2022-08-18T09:56:06.959Z,23.80
2022-08-18T09:58:49.921Z,23.90
2022-08-18T10:01:31.940Z,24.00
2022-08-18T10:04:14.420Z,24.10
2022-08-18T10:06:48.368Z,24.20
2022-08-18T10:09:36.759Z,24.30
2022-08-18T10:12:27.261Z,24.30
2022-08-18T10:15:13.156Z,24.30
2022-08-18T10:17:42.597Z,24.40
2022-08-18T10:20:25.968Z,24.40
2022-08-18T10:22:54.433Z,24.50
2022-08-18T10:25:35.035Z,24.50
2022-08-18T10:28:05.451Z,24.60
2022-08-18T10:30:36.483Z,24.60
2022-08-18T10:33:43.406Z,24.70
2022-08-18T10:36:12.474Z,24.70
2022-08-18T10:38:45.888Z,24.70
2022-08-18T10:41:20.799Z,24.70
2022-08-18T10:43:57.265Z,24.80
2022-08-18T10:46:30.589Z,24.70
2022-08-18T10:49:17.516Z,24.70
2022-08-18T10:52:06.335Z,24.60
2022-08-18T10:54:59.017Z,24.60
2022-08-18T10:57:38.528Z,24.70
2022-08-18T11:00:11.157Z,24.60
2022-08-18T11:06:18.238Z,24.60
2022-08-18T11:14:45.572Z,24.50
2022-08-18T11:17:22.900Z,24.50
2022-08-18T11:19:57.644Z,24.50
2022-08-18T11:22:32.464Z,24.50
2022-08-18T11:25:02.920Z,24.50
2022-08-18T11:27:35.203Z,24.50
2022-08-18T11:30:03.213Z,24.60
2022-08-18T11:32:39.716Z,24.60
2022-08-18T11:35:12.262Z,24.60
2022-08-18T11:43:41.749Z,24.50
2022-08-18T11:46:28.155Z,24.50
2022-08-18T11:48:56.496Z,24.50
2022-08-18T11:51:31.993Z,24.50
2022-08-18T11:54:04.803Z,24.50
2022-08-18T11:56:36.105Z,24.50
2022-08-18T11:59:06.765Z,24.40
2022-08-18T12:01:40.816Z,24.40
2022-08-18T12:04:14.544Z,24.40
2022-08-18T12:06:51.324Z,24.40
2022-08-18T12:09:30.620Z,24.40
2022-08-18T12:12:15.340Z,24.40
2022-08-18T12:15:17.151Z,24.40
2022-08-18T12:17:52.591Z,24.50
2022-08-18T12:20:20.370Z,24.40
2022-08-18T12:22:49.170Z,24.50
2022-08-18T12:28:11.056Z,24.60
2022-08-18T12:30:42.196Z,24.60
2022-08-18T12:35:59.147Z,24.80
2022-08-18T12:38:26.386Z,24.80
2022-08-18T12:40:55.649Z,24.90
2022-08-18T12:43:27.162Z,24.90
2022-08-18T12:45:59.955Z,25.00
2022-08-18T12:48:31.555Z,25.00
2022-08-18T12:50:59.617Z,25.10
2022-08-18T12:56:20.682Z,25.10
2022-08-18T12:58:47.742Z,25.20
2022-08-18T13:01:14.472Z,25.30
2022-08-18T13:03:45.344Z,25.40
2022-08-18T13:06:22.677Z,25.30
2022-08-18T13:08:56.606Z,25.30
2022-08-18T13:11:25.084Z,25.40
2022-08-18T13:13:56.017Z,25.40
2022-08-18T13:16:30.614Z,25.40
2022-08-18T13:18:57.505Z,25.40
2022-08-18T13:21:24.387Z,25.40
2022-08-18T13:23:53.511Z,25.40
2022-08-18T13:26:28.315Z,25.50
2022-08-18T13:28:58.370Z,25.60
2022-08-18T13:31:26.781Z,25.60
2022-08-18T13:33:59.792Z,25.70
2022-08-18T13:36:45.963Z,25.70
2022-08-18T13:39:16.207Z,25.70
2022-08-18T13:41:47.482Z,25.80
2022-08-18T13:44:18.999Z,25.80
2022-08-18T13:46:49.528Z,25.80
2022-08-18T13:49:18.558Z,25.90
2022-08-18T13:51:51.557Z,25.90
2022-08-18T13:54:30.992Z,25.90
2022-08-18T13:56:58.684Z,25.80
2022-08-18T13:59:26.992Z,25.80
2022-08-18T14:01:53.725Z,25.90
2022-08-18T14:04:22.827Z,25.90
2022-08-18T14:06:57.066Z,25.90
2022-08-18T14:09:36.406Z,26.00
2022-08-18T14:12:05.871Z,26.00
2022-08-18T14:14:33.198Z,26.20
2022-08-18T14:17:00.631Z,26.20
2022-08-18T14:19:48.548Z,26.20
2022-08-18T14:22:33.789Z,26.30
2022-08-18T14:25:22.306Z,26.30
2022-08-18T14:27:56.985Z,26.40
2022-08-18T14:30:23.975Z,26.40
2022-08-18T14:32:53.689Z,26.40
2022-08-18T14:36:04.323Z,26.40
2022-08-18T14:38:09.916Z,26.50
2022-08-18T14:40:38.627Z,26.60
2022-08-18T14:43:10.183Z,26.70
2022-08-18T14:45:36.781Z,26.70
2022-08-18T14:48:06.598Z,26.80
2022-08-18T14:50:37.777Z,26.80
2022-08-18T14:53:07.652Z,26.80
2022-08-18T14:55:34.346Z,26.80
2022-08-18T14:58:03.106Z,26.90
2022-08-18T15:00:29.906Z,26.90
2022-08-18T15:02:59.735Z,26.90
2022-08-18T15:05:33.743Z,26.90
2022-08-18T15:08:03.729Z,26.90
2022-08-18T15:10:31.223Z,26.90
2022-08-18T15:12:59.630Z,27.00
2022-08-18T15:15:26.790Z,27.10
2022-08-18T15:18:11.225Z,27.10
2022-08-18T15:21:00.098Z,27.20
2022-08-18T15:23:45.676Z,27.20
2022-08-18T15:26:13.154Z,27.30
2022-08-18T15:28:42.376Z,27.30
2022-08-18T15:31:49.498Z,27.30
2022-08-18T15:33:58.574Z,27.20
2022-08-18T15:36:32.937Z,27.10
2022-08-18T15:38:59.925Z,27.10
2022-08-18T15:41:28.427Z,27.10
2022-08-18T15:43:58.302Z,27.10
2022-08-18T15:46:27.041Z,27.10
2022-08-18T15:48:57.566Z,27.10
2022-08-18T15:51:24.960Z,27.10
2022-08-18T15:53:51.763Z,27.10
2022-08-18T15:56:25.966Z,27.00
2022-08-18T15:58:52.677Z,26.90
2022-08-18T16:01:30.249Z,26.90
2022-08-18T16:03:59.658Z,26.90
2022-08-18T16:06:32.185Z,26.90
2022-08-18T16:08:59.710Z,26.90
2022-08-18T16:11:29.035Z,26.90
2022-08-18T16:13:58.714Z,26.80
2022-08-18T16:16:35.680Z,26.80
2022-08-18T16:19:04.313Z,26.80
2022-08-18T16:21:31.046Z,26.80
2022-08-18T16:23:58.257Z,26.70
2022-08-18T16:26:24.893Z,26.70
2022-08-18T16:28:54.393Z,26.70
2022-08-18T16:31:26.443Z,26.60
2022-08-18T16:33:53.799Z,26.50
2022-08-18T16:36:21.327Z,26.50
2022-08-18T16:38:48.016Z,26.50
2022-08-18T16:41:23.055Z,26.40
2022-08-18T16:43:49.805Z,26.40
2022-08-18T16:46:21.293Z,26.40
2022-08-18T16:48:49.396Z,26.40
2022-08-18T16:51:17.248Z,26.40
2022-08-18T16:53:45.633Z,26.40
2022-08-18T16:56:13.253Z,26.40
2022-08-18T16:58:58.555Z,26.30
2022-08-18T17:01:48.877Z,26.30
2022-08-18T17:04:22.522Z,26.30
2022-08-18T17:06:49.488Z,26.20
2022-08-18T17:09:21.244Z,26.10
2022-08-18T17:11:52.304Z,26.10
2022-08-18T17:14:20.762Z,26.10
2022-08-18T17:16:48.523Z,26.00
2022-08-18T17:19:15.220Z,26.00
2022-08-18T17:21:41.860Z,26.00
2022-08-18T17:24:11.652Z,25.90
2022-08-18T17:26:48.334Z,25.90
2022-08-18T17:29:24.260Z,25.90
2022-08-18T17:31:57.260Z,25.80
2022-08-18T17:34:29.982Z,25.80
2022-08-18T17:36:58.010Z,25.80
2022-08-18T17:39:28.441Z,25.80
2022-08-18T17:42:13.484Z,25.80
2022-08-18T17:44:46.251Z,25.80
2022-08-18T17:47:24.008Z,25.80
2022-08-18T17:50:28.056Z,25.80
2022-08-18T17:53:05.763Z,25.80
2022-08-18T17:55:52.991Z,25.70
2022-08-18T17:58:43.127Z,25.60
2022-08-18T18:01:10.787Z,25.60
2022-08-18T18:03:40.939Z,25.60
2022-08-18T18:06:13.803Z,25.50
2022-08-18T18:09:06.508Z,25.50
2022-08-18T18:11:37.546Z,25.50
2022-08-18T18:14:24.113Z,25.40
2022-08-18T18:16:59.974Z,25.40
2022-08-18T18:19:31.536Z,25.40
2022-08-18T18:22:03.379Z,25.40
2022-08-18T18:24:31.872Z,25.30
2022-08-18T18:26:58.463Z,25.30
2022-08-18T18:29:37.842Z,25.30
2022-08-18T18:32:07.932Z,25.30
2022-08-18T18:34:39.289Z,25.30
2022-08-18T18:37:26.073Z,25.30
2022-08-18T18:40:01.300Z,25.20
2022-08-18T18:42:30.388Z,25.20
2022-08-18T18:44:59.124Z,25.10
2022-08-18T18:47:35.158Z,25.00
2022-08-18T18:50:06.761Z,25.00
2022-08-18T18:52:43.327Z,25.00
2022-08-18T18:55:20.756Z,24.90
2022-08-18T18:57:50.556Z,24.90
2022-08-18T19:00:21.074Z,24.90
2022-08-18T19:02:47.723Z,24.90
2022-08-18T19:05:19.771Z,24.90
2022-08-18T19:08:01.524Z,24.80
2022-08-18T19:10:36.936Z,24.80
2022-08-18T19:13:10.072Z,24.80
2022-08-18T19:15:40.412Z,24.80
2022-08-18T19:18:25.869Z,24.80
2022-08-18T19:22:05.511Z,24.80
2022-08-18T19:23:50.035Z,24.70
2022-08-18T19:26:27.074Z,24.70
2022-08-18T19:29:13.547Z,24.70
2022-08-18T19:31:55.447Z,24.60
2022-08-18T19:34:31.314Z,24.60
2022-08-18T19:37:27.221Z,24.60
2022-08-18T19:40:26.465Z,24.60
2022-08-18T19:42:58.638Z,24.60
2022-08-18T19:45:33.557Z,24.50
2022-08-18T19:48:18.497Z,24.40
2022-08-18T19:50:50.929Z,24.40
2022-08-18T19:53:23.573Z,24.40
2022-08-18T19:56:08.873Z,24.40
2022-08-18T19:58:58.533Z,24.30
2022-08-18T20:01:47.167Z,24.30
2022-08-18T20:04:22.530Z,24.30
2022-08-18T20:06:57.615Z,24.30
2022-08-18T20:09:39.263Z,24.30
2022-08-18T20:12:11.516Z,24.30
2022-08-18T20:14:42.399Z,24.20
2022-08-18T20:17:08.949Z,24.20
2022-08-18T20:19:38.003Z,24.20
2022-08-18T20:22:10.498Z,24.20
2022-08-18T20:24:46.789Z,24.20
2022-08-18T20:27:16.807Z,24.10
2022-08-18T20:29:46.132Z,24.10
2022-08-18T20:32:21.070Z,24.10
2022-08-18T20:34:49.742Z,24.10
2022-08-18T20:37:25.642Z,24.20
2022-08-18T20:39:54.971Z,24.20
2022-08-18T20:42:21.642Z,24.10
2022-08-18T20:44:48.243Z,24.10
2022-08-18T20:47:33.703Z,24.10
2022-08-18T20:50:03.327Z,24.10
2022-08-18T20:52:48.576Z,24.00
2022-08-18T20:55:30.643Z,23.90
2022-08-18T20:58:02.358Z,23.90
2022-08-18T21:00:30.800Z,23.90
2022-08-18T21:02:58.458Z,23.90
2022-08-18T21:05:27.892Z,23.90
2022-08-18T21:08:13.159Z,23.90
2022-08-18T21:10:51.275Z,23.80
2022-08-18T21:13:40.595Z,23.80
2022-08-18T21:16:09.823Z,23.90
2022-08-18T21:18:37.142Z,23.80
2022-08-18T21:21:06.064Z,23.70
2022-08-18T21:23:37.571Z,23.70
2022-08-18T21:26:06.251Z,23.70
2022-08-18T21:28:34.960Z,23.70
2022-08-18T21:31:29.217Z,23.60
2022-08-18T21:33:51.204Z,23.60
2022-08-18T21:36:23.256Z,23.60
2022-08-18T21:39:05.621Z,23.60
2022-08-18T21:41:36.116Z,23.60
2022-08-18T21:44:05.497Z,23.60
2022-08-18T21:46:32.283Z,23.60
2022-08-18T21:49:00.413Z,23.60
2022-08-18T21:51:32.512Z,23.60
2022-08-18T21:53:59.724Z,23.60
2022-08-18T21:56:29.967Z,23.50
2022-08-18T21:59:09.628Z,23.50
2022-08-18T22:01:56.506Z,23.50
2022-08-18T22:04:24.218Z,23.50
2022-08-18T22:06:52.997Z,23.50
2022-08-18T22:09:39.984Z,23.50
2022-08-18T22:12:35.906Z,23.50
2022-08-18T22:15:12.328Z,23.50
2022-08-18T22:17:42.984Z,23.40
2022-08-18T22:20:29.821Z,23.40
2022-08-18T22:23:24.915Z,23.40
2022-08-18T22:25:51.698Z,23.40
2022-08-18T22:28:22.292Z,23.30
2022-08-18T22:30:48.888Z,23.30
2022-08-18T22:33:15.482Z,23.20
2022-08-18T22:35:45.271Z,23.20
2022-08-18T22:38:12.463Z,23.10
2022-08-18T22:40:39.091Z,23.10
2022-08-18T22:43:05.752Z,23.00
2022-08-18T22:45:32.320Z,23.10
2022-08-18T22:47:58.952Z,23.10
2022-08-18T22:50:27.775Z,23.10
2022-08-18T22:52:54.540Z,23.00
2022-08-18T22:55:23.660Z,23.00
2022-08-18T22:57:54.783Z,23.10
2022-08-18T23:00:23.077Z,23.00
2022-08-18T23:02:50.546Z,23.00
2022-08-18T23:05:19.409Z,23.00
2022-08-18T23:07:46.126Z,23.00
2022-08-18T23:10:13.815Z,23.00
2022-08-18T23:12:42.566Z,22.90
2022-08-18T23:15:12.414Z,22.90
2022-08-18T23:17:41.922Z,22.90
2022-08-18T23:20:11.325Z,22.90
2022-08-18T23:22:38.582Z,22.90
2022-08-18T23:25:09.100Z,22.90
2022-08-18T23:27:36.454Z,22.90
2022-08-18T23:30:14.570Z,22.90
2022-08-18T23:32:41.133Z,22.90
2022-08-18T23:35:07.800Z,22.80
2022-08-18T23:37:39.482Z,22.80
2022-08-18T23:40:06.429Z,22.80
2022-08-18T23:42:35.443Z,22.80
2022-08-18T23:45:06.832Z,22.70
2022-08-18T23:47:33.452Z,22.70
2022-08-18T23:50:00.063Z,22.70
2022-08-18T23:52:26.992Z,22.70
2022-08-18T23:54:54.065Z,22.70
2022-08-18T23:57:20.674Z,22.70
2022-08-18T23:59:47.248Z,22.70
